Time;durP1;ratioP1;P1;durP2;ratioP2;P2;SDS_P1;SDS_P2;PMS_P1;PMS_P2;Temp;Humidity;BMP_temperature;BMP_pressure;BME280_temperature;BME280_humidity;BME280_pressure;Samples;Min_cycle;Max_cycle;Signal;HPM_P1;HPM_P2
2022/06/28 00:00:13;;;;;;;5.80;5.30;;;;;;;17.87;100.00;96791.94;5030166;28;103549;-62
2022/06/28 00:02:42;;;;;;;5.83;5.33;;;;;;;17.88;100.00;96786.25;5029394;28;104023;-62
2022/06/28 00:05:10;;;;;;;7.00;5.30;;;;;;;17.86;100.00;96776.88;5030240;28;101896;-62
2022/06/28 00:07:38;;;;;;;5.43;4.93;;;;;;;17.89;100.00;96782.50;5032800;28;105374;-62
2022/06/28 00:10:07;;;;;;;5.67;5.10;;;;;;;17.95;100.00;96775.16;5030113;28;101903;-62
2022/06/28 00:12:34;;;;;;;5.93;5.23;;;;;;;17.81;100.00;96779.59;5031350;28;102461;-62
2022/06/28 00:17:57;;;;;;;5.90;5.50;;;;;;;17.85;100.00;96791.41;5031459;27;101821;-62
2022/06/28 00:20:25;;;;;;;5.93;5.40;;;;;;;17.86;100.00;96803.78;5031074;27;103524;-62
2022/06/28 00:22:52;;;;;;;6.77;6.17;;;;;;;17.87;100.00;96802.72;5030663;28;102664;-62
2022/06/28 00:25:27;;;;;;;6.23;5.73;;;;;;;17.86;100.00;96809.16;5029854;28;101993;-62
2022/06/28 00:27:55;;;;;;;6.53;6.00;;;;;;;17.94;100.00;96811.22;5031099;27;103900;-62
2022/06/28 00:30:22;;;;;;;6.13;5.53;;;;;;;17.93;100.00;96810.41;5032346;28;102013;-62
2022/06/28 00:32:49;;;;;;;6.50;5.90;;;;;;;17.94;100.00;96814.72;5029715;28;105309;-62
2022/06/28 00:36:07;;;;;;;6.70;6.20;;;;;;;17.95;100.00;96816.34;5029141;28;105505;-62
2022/06/28 00:38:36;;;;;;;6.43;5.83;;;;;;;18.09;100.00;96819.16;5029589;28;101936;-62
2022/06/28 00:41:03;;;;;;;6.20;5.70;;;;;;;18.15;100.00;96818.78;5029644;28;106606;-62
2022/06/28 00:43:31;;;;;;;6.60;6.00;;;;;;;18.11;100.00;96827.72;5030314;28;102693;-62
2022/06/28 00:45:58;;;;;;;6.90;6.30;;;;;;;18.09;100.00;96825.31;5029662;28;101999;-62
2022/06/28 00:48:44;;;;;;;6.37;5.80;;;;;;;18.15;100.00;96832.22;5029406;28;105767;-62
2022/06/28 00:51:11;;;;;;;6.07;5.53;;;;;;;18.18;100.00;96842.44;5032038;28;105297;-62
2022/06/28 00:53:39;;;;;;;6.00;5.50;;;;;;;18.18;100.00;96828.97;5029341;28;103504;-62
2022/06/28 00:56:21;;;;;;;6.30;5.67;;;;;;;18.25;100.00;96839.41;5027312;28;105567;-62
2022/06/28 00:58:50;;;;;;;4.93;4.63;;;;;;;18.18;100.00;96847.00;5028976;28;102008;-62
2022/06/28 01:01:17;;;;;;;5.73;5.13;;;;;;;18.15;100.00;96842.22;5029470;28;105190;-62
2022/06/28 01:03:45;;;;;;;4.63;4.33;;;;;;;18.18;100.00;96841.63;5028544;28;105843;-61
2022/06/28 01:09:40;;;;;;;4.73;4.33;;;;;;;18.32;100.00;96840.66;5029381;28;105469;-62
2022/06/28 01:12:08;;;;;;;5.53;4.67;;;;;;;18.33;100.00;96852.25;5028565;28;105119;-61
2022/06/28 01:14:38;;;;;;;4.60;4.10;;;;;;;18.22;100.00;96856.94;5032753;28;101964;-62
2022/06/28 01:17:12;;;;;;;4.50;4.20;;;;;;;18.30;100.00;96855.47;5008557;28;105019;-61
2022/06/28 01:19:56;;;;;;;3.93;3.63;;;;;;;18.34;100.00;96860.06;5009056;28;101818;-62
2022/06/28 01:22:48;;;;;;;4.13;3.83;;;;;;;18.39;100.00;96856.50;5004016;28;102342;-62
2022/06/28 01:28:45;;;;;;;4.20;3.90;;;;;;;18.47;100.00;96869.34;5024679;28;102012;-62
2022/06/28 01:31:29;;;;;;;4.33;4.03;;;;;;;18.54;100.00;96877.84;5028986;28;104861;-62
2022/06/28 01:34:00;;;;;;;4.57;4.20;;;;;;;18.49;100.00;96872.53;5028505;28;104795;-62
2022/06/28 01:36:34;;;;;;;4.97;4.20;;;;;;;18.50;100.00;96884.91;5028868;28;102040;-62
2022/06/28 01:39:05;;;;;;;4.40;4.00;;;;;;;18.51;100.00;96875.72;5031652;28;104843;-62
2022/06/28 01:41:36;;;;;;;4.20;3.90;;;;;;;18.54;100.00;96872.47;5028720;28;101937;-62
2022/06/28 01:44:17;;;;;;;4.87;4.10;;;;;;;18.53;100.00;96873.56;5028981;28;104348;-62
2022/06/28 01:47:15;;;;;;;6.30;4.77;;;;;;;18.52;100.00;96883.53;5015546;27;103709;-62
2022/06/28 01:50:06;;;;;;;4.83;4.43;;;;;;;18.44;100.00;96880.66;5021155;28;101967;-62
2022/06/28 01:52:43;;;;;;;4.97;4.57;;;;;;;18.39;100.00;96880.72;5028782;28;104945;-62
2022/06/28 01:55:40;;;;;;;4.87;4.40;;;;;;;18.45;100.00;96888.47;5027402;28;105309;-62
2022/06/28 01:58:17;;;;;;;4.50;4.20;;;;;;;18.45;100.00;96887.66;5028660;28;101981;-62
2022/06/28 02:00:44;;;;;;;4.67;4.27;;;;;;;18.52;100.00;96896.22;5028461;28;103565;-62
2022/06/28 02:03:13;;;;;;;4.50;4.20;;;;;;;18.54;100.00;96891.31;5031479;28;105333;-62
2022/06/28 02:05:59;;;;;;;4.70;4.30;;;;;;;18.55;100.00;96887.53;5027084;28;101991;-62
2022/06/28 02:08:27;;;;;;;4.40;4.10;;;;;;;18.57;100.00;96891.53;5031042;28;105097;-62
2022/06/28 02:11:01;;;;;;;3.90;3.60;;;;;;;18.59;100.00;96883.19;5033509;28;101787;-62
2022/06/28 02:13:54;;;;;;;4.70;4.30;;;;;;;18.54;100.00;96880.53;5031854;27;103683;-62
2022/06/28 02:16:32;;;;;;;4.90;4.50;;;;;;;18.58;100.00;96887.75;5031104;28;105503;-62
2022/06/28 02:19:09;;;;;;;5.17;4.50;;;;;;;18.55;100.00;96892.91;5031986;28;101755;-62
2022/06/28 02:21:37;;;;;;;4.33;4.00;;;;;;;18.52;100.00;96893.50;5031574;28;103717;-62
2022/06/28 02:24:05;;;;;;;4.37;3.97;;;;;;;18.49;100.00;96894.06;5031208;28;105122;-62
2022/06/28 02:27:03;;;;;;;5.30;4.00;;;;;;;18.47;100.00;96897.06;5035285;28;101962;-62
2022/06/28 02:29:30;;;;;;;5.00;4.50;;;;;;;18.43;100.00;96890.63;5010992;28;105768;-62
2022/06/28 02:31:57;;;;;;;4.60;4.20;;;;;;;18.47;100.00;96888.97;5011645;28;102119;-62
2022/06/28 02:40:24;;;;;;;3.97;3.67;;;;;;;18.45;100.00;96901.13;4970677;28;102138;-62
2022/06/28 02:42:54;;;;;;;4.10;3.80;;;;;;;18.44;100.00;96897.63;4970346;28;105774;-62
2022/06/28 02:45:30;;;;;;;4.83;3.97;;;;;;;18.45;100.00;96887.66;5004433;27;102908;-62
2022/06/28 02:47:57;;;;;;;4.50;4.10;;;;;;;18.41;100.00;96886.63;5034833;28;101950;-62
2022/06/28 02:51:14;;;;;;;4.17;3.80;;;;;;;18.44;100.00;96883.34;5029871;28;102206;-62
2022/06/28 02:53:41;;;;;;;3.93;3.63;;;;;;;18.45;100.00;96882.25;5031281;28;101918;-62
2022/06/28 02:56:09;;;;;;;5.37;4.17;;;;;;;18.43;100.00;96881.75;5030622;28;104835;-62
2022/06/28 02:58:38;;;;;;;4.23;3.87;;;;;;;18.45;100.00;96884.97;5032118;28;101710;-62
2022/06/28 03:01:05;;;;;;;3.90;3.70;;;;;;;18.43;100.00;96873.69;5031069;28;102041;-62
2022/06/28 03:03:32;;;;;;;4.13;3.80;;;;;;;18.44;100.00;96875.28;5031145;28;102468;-62
2022/06/28 03:06:04;;;;;;;4.47;4.07;;;;;;;18.40;100.00;96871.56;5030334;28;105349;-62
2022/06/28 03:08:32;;;;;;;4.60;4.20;;;;;;;18.34;100.00;96868.13;5031064;28;101914;-62
2022/06/28 03:10:59;;;;;;;4.57;4.17;;;;;;;18.33;100.00;96871.09;5033855;28;105049;-62
2022/06/28 03:13:27;;;;;;;4.00;3.70;;;;;;;18.31;100.00;96868.66;5031119;28;101887;-62
2022/06/28 03:16:25;;;;;;;4.17;3.83;;;;;;;18.33;100.00;96871.09;5031074;28;105575;-62
2022/06/28 03:18:53;;;;;;;5.13;4.67;;;;;;;18.29;100.00;96868.16;5029422;27;105247;-62
2022/06/28 03:21:20;;;;;;;4.93;4.30;;;;;;;18.28;100.00;96871.13;5030774;28;101971;-62
2022/06/28 03:23:47;;;;;;;4.80;4.40;;;;;;;18.29;100.00;96872.72;5030823;28;105065;-62
2022/06/28 03:26:55;;;;;;;5.37;4.87;;;;;;;18.16;100.00;96876.91;5030147;28;105977;-62
2022/06/28 03:29:23;;;;;;;5.30;4.80;;;;;;;18.12;100.00;96883.97;5030691;28;101835;-61
2022/06/28 03:31:52;;;;;;;5.27;4.83;;;;;;;18.02;100.00;96885.94;5030747;28;104502;-62
2022/06/28 03:34:19;;;;;;;7.03;5.03;;;;;;;18.02;100.00;96891.31;5033448;28;105482;-62
2022/06/28 03:37:18;;;;;;;5.73;5.23;;;;;;;17.95;100.00;96894.38;5030598;28;105083;-62
2022/06/28 03:39:48;;;;;;;5.80;5.30;;;;;;;17.84;100.00;96897.44;5011538;28;102556;-61
2022/06/28 03:42:15;;;;;;;5.80;5.30;;;;;;;17.93;100.00;96904.59;5010346;28;101900;-62
2022/06/28 03:44:47;;;;;;;6.97;6.37;;;;;;;17.89;100.00;96898.22;5027454;28;105090;-62
2022/06/28 03:47:16;;;;;;;6.90;6.30;;;;;;;17.77;100.00;96899.66;5029867;28;105321;-62
2022/06/28 03:49:53;;;;;;;5.90;5.43;;;;;;;17.84;100.00;96910.91;5028581;27;102152;-62
2022/06/28 03:52:40;;;;;;;6.70;6.20;;;;;;;17.80;100.00;96901.78;5030268;28;103945;-62
2022/06/28 03:55:13;;;;;;;6.37;5.77;;;;;;;17.81;100.00;96912.25;5028532;27;102518;-62
2022/06/28 03:57:46;;;;;;;7.10;6.27;;;;;;;17.82;100.00;96913.06;5033719;28;101747;-62
2022/06/28 04:00:15;;;;;;;5.70;5.30;;;;;;;17.71;100.00;96915.03;5029584;28;105360;-62
2022/06/28 04:02:48;;;;;;;6.30;5.80;;;;;;;17.73;100.00;96922.84;5029929;28;101800;-62
2022/06/28 04:08:48;;;;;;;6.43;5.83;;;;;;;17.76;100.00;96919.59;5029673;28;105030;-62
2022/06/28 04:11:15;;;;;;;5.73;5.30;;;;;;;17.79;100.00;96916.31;5030069;28;103398;-62
2022/06/28 04:13:47;;;;;;;6.30;5.40;;;;;;;17.79;100.00;96900.16;5030153;28;105537;-62
2022/06/28 04:16:43;;;;;;;6.73;5.87;;;;;;;17.82;100.00;96895.03;5029365;28;105167;-62
2022/06/28 04:19:50;;;;;;;6.10;5.50;;;;;;;17.88;100.00;96890.41;5029987;28;101871;-62
2022/06/28 04:22:18;;;;;;;6.53;6.03;;;;;;;17.80;100.00;96894.50;5032525;28;104983;-62
2022/06/28 04:24:53;;;;;;;6.57;5.97;;;;;;;17.74;100.00;96890.28;5029897;28;101963;-62
2022/06/28 04:27:29;;;;;;;5.97;5.57;;;;;;;17.89;100.00;96897.38;5029974;28;103490;-62
2022/06/28 04:29:59;;;;;;;6.70;5.87;;;;;;;17.83;100.00;96890.47;5029466;28;105523;-62
2022/06/28 04:32:46;;;;;;;5.83;5.37;;;;;;;17.83;100.00;96890.47;5030323;28;101944;-62
2022/06/28 04:35:16;;;;;;;6.93;5.70;;;;;;;17.94;100.00;96886.59;5029812;28;104725;-62
2022/06/28 04:37:44;;;;;;;6.40;5.90;;;;;;;17.84;100.00;96887.50;5029111;28;103816;-62
2022/06/28 04:40:21;;;;;;;5.80;5.33;;;;;;;17.85;100.00;96888.28;5029568;28;102276;-62
2022/06/28 04:43:00;;;;;;;6.37;5.87;;;;;;;17.90;100.00;96886.34;5029647;28;103839;-62
2022/06/28 04:48:56;;;;;;;6.33;5.73;;;;;;;17.79;100.00;96892.09;5029637;28;105296;-62
2022/06/28 04:51:40;;;;;;;6.23;5.63;;;;;;;17.99;100.00;96883.84;5028299;28;105500;-62
2022/06/28 04:54:08;;;;;;;6.73;6.13;;;;;;;17.93;100.00;96877.69;5029475;28;101910;-62
2022/06/28 04:56:55;;;;;;;6.83;5.97;;;;;;;17.82;100.00;96886.16;5029687;28;103741;-62
2022/06/28 04:59:24;;;;;;;6.30;5.80;;;;;;;17.85;100.00;96883.72;5028847;28;103635;-62
2022/06/28 05:01:52;;;;;;;6.27;5.53;;;;;;;17.77;100.00;96886.22;5029327;28;101985;-62
2022/06/28 05:04:20;;;;;;;6.43;5.80;;;;;;;17.79;100.00;96879.47;5029352;28;104779;-62
2022/06/28 05:07:05;;;;;;;6.70;5.93;;;;;;;17.95;100.00;96888.19;5032147;28;105268;-62
2022/06/28 05:09:32;;;;;;;9.47;6.00;;;;;;;17.96;100.00;96884.41;5030605;27;102309;-62
2022/06/28 05:12:00;;;;;;;5.00;4.60;;;;;;;17.82;100.00;96895.03;5028509;28;105770;-62
2022/06/28 05:18:02;;;;;;;4.77;4.43;;;;;;;17.76;100.00;96893.47;5029195;28;104827;-62
2022/06/28 05:20:30;;;;;;;4.50;4.20;;;;;;;17.94;100.00;96891.97;5028246;28;104702;-62
2022/06/28 05:22:59;;;;;;;4.83;4.43;;;;;;;18.02;100.00;96899.41;5029109;28;101859;-62
2022/06/28 05:29:46;;;;;;;4.67;4.30;;;;;;;18.32;100.00;96864.13;4967709;28;103776;-62
2022/06/28 05:32:14;;;;;;;4.03;3.73;;;;;;;18.44;100.00;96869.91;5031211;28;102004;-62
2022/06/28 05:38:04;;;;;;;4.60;4.20;;;;;;;18.34;100.00;96876.22;5028996;28;101884;-62
2022/06/28 05:40:32;;;;;;;5.20;4.60;;;;;;;18.35;100.00;96877.00;5030331;27;102507;-62
2022/06/28 05:42:59;;;;;;;4.53;4.13;;;;;;;18.28;100.00;96871.13;5030843;27;105542;-62
2022/06/28 05:45:37;;;;;;;4.00;3.60;;;;;;;18.38;100.00;96866.47;5032473;28;102539;-62
2022/06/28 05:48:04;;;;;;;4.60;4.20;;;;;;;18.31;100.00;96868.66;5032403;28;105595;-62
2022/06/28 05:50:31;;;;;;;4.90;4.27;;;;;;;18.38;100.00;96860.28;5031455;28;105830;-62
2022/06/28 05:52:59;;;;;;;4.50;4.20;;;;;;;18.38;100.00;96865.66;5032416;28;101964;-62
2022/06/28 05:55:28;;;;;;;4.27;3.97;;;;;;;18.33;100.00;96858.47;5034832;28;104825;-62
2022/06/28 05:57:56;;;;;;;4.27;3.93;;;;;;;18.43;100.00;96852.13;5032340;28;101906;-62
2022/06/28 06:00:24;;;;;;;4.47;3.80;;;;;;;18.54;100.00;96854.41;5032392;28;104804;-62
2022/06/28 06:02:51;;;;;;;4.53;4.13;;;;;;;18.77;100.00;96839.28;5031386;28;105459;-62
2022/06/28 06:05:41;;;;;;;4.07;3.77;;;;;;;18.82;100.00;96839.22;5032176;28;102009;-62
2022/06/28 06:08:09;;;;;;;4.67;4.00;;;;;;;18.94;100.00;96831.47;5032174;28;105250;-62
2022/06/28 06:10:38;;;;;;;4.83;4.23;;;;;;;19.23;100.00;96830.25;5031311;28;105050;-62
2022/06/28 06:13:06;;;;;;;4.63;4.20;;;;;;;19.26;100.00;96831.56;5031993;28;101969;-62
2022/06/28 06:15:33;;;;;;;5.80;4.33;;;;;;;19.54;100.00;96820.56;5032080;28;105755;-62
2022/06/28 06:18:40;;;;;;;4.53;4.13;;;;;;;19.85;100.00;96805.44;5036392;28;102563;-62
2022/06/28 06:21:09;;;;;;;4.00;3.70;;;;;;;20.16;100.00;96802.97;5031918;28;104854;-62
2022/06/28 06:23:37;;;;;;;3.97;3.67;;;;;;;20.30;100.00;96798.34;5031053;28;105041;-62
2022/06/28 06:26:10;;;;;;;4.57;4.17;;;;;;;20.42;100.00;96798.63;5033201;27;102005;-62
2022/06/28 06:28:37;;;;;;;4.90;4.50;;;;;;;20.54;100.00;96809.75;5031774;28;105243;-62
2022/06/28 06:31:07;;;;;;;4.87;4.47;;;;;;;20.61;100.00;96810.13;5031115;28;104119;-62
2022/06/28 06:33:53;;;;;;;5.40;4.53;;;;;;;20.89;100.00;96792.75;5030017;28;101688;-62
2022/06/28 06:36:46;;;;;;;4.30;3.90;;;;;;;20.76;100.00;96777.34;5029730;27;103467;-62
2022/06/28 06:39:15;;;;;;;4.10;3.70;;;;;;;20.44;100.00;96772.91;5030884;28;104877;-62
2022/06/28 06:41:45;;;;;;;4.60;4.20;;;;;;;20.69;100.00;96777.78;5035115;28;101976;-62
2022/06/28 06:44:12;;;;;;;3.97;3.73;;;;;;;20.78;100.00;96773.25;5030865;28;105587;-62
2022/06/28 06:46:42;;;;;;;5.73;4.60;;;;;;;20.58;100.00;96762.06;5031235;28;101966;-62
2022/06/28 06:49:09;;;;;;;4.10;3.80;;;;;;;20.71;100.00;96759.34;5031407;28;105348;-62
2022/06/28 06:51:37;;;;;;;4.53;3.60;;;;;;;20.78;100.00;96748.09;5030838;28;105043;-62
2022/06/28 06:54:04;;;;;;;3.83;3.53;;;;;;;20.97;100.00;96760.38;5029915;27;101882;-62
2022/06/28 06:56:31;;;;;;;4.00;3.70;;;;;;;21.05;100.00;96756.13;5031232;28;105063;-62
2022/06/28 06:59:00;;;;;;;4.40;4.07;;;;;;;21.07;100.00;96745.81;5030654;28;106048;-62
2022/06/28 07:01:29;;;;;;;4.20;3.90;;;;;;;21.25;100.00;96758.34;5032620;28;101909;-62
2022/06/28 07:03:57;;;;;;;4.20;3.80;;;;;;;21.41;100.00;96751.44;5034041;28;105042;-62
2022/06/28 07:06:36;;;;;;;4.20;3.80;;;;;;;21.43;100.00;96750.03;5031100;28;102010;-62
2022/06/28 07:09:04;;;;;;;4.20;3.87;;;;;;;21.55;100.00;96746.72;5031228;28;104851;-62
2022/06/28 07:11:32;;;;;;;4.10;3.80;;;;;;;21.60;100.00;96750.13;5030686;28;105321;-62
2022/06/28 07:14:01;;;;;;;4.00;3.70;;;;;;;21.70;100.00;96746.38;5031085;28;101857;-62
2022/06/28 07:16:55;;;;;;;5.23;3.70;;;;;;;21.92;100.00;96735.47;5031010;28;105826;-62
2022/06/28 07:19:23;;;;;;;4.10;3.70;;;;;;;22.22;100.00;96726.44;5030226;28;105533;-62
2022/06/28 07:21:52;;;;;;;5.33;3.53;;;;;;;21.87;100.00;96733.72;5030964;28;101855;-62
2022/06/28 07:24:19;;;;;;;3.23;3.00;;;;;;;21.92;100.00;96735.47;5033763;28;105186;-62
2022/06/28 07:27:34;;;;;;;3.97;3.60;;;;;;;21.94;100.00;96730.53;5030843;28;102048;-62
2022/06/28 07:30:03;;;;;;;3.73;3.40;;;;;;;22.21;100.00;96727.56;5030738;28;105229;-62
2022/06/28 07:32:31;;;;;;;3.30;3.10;;;;;;;22.21;100.00;96728.38;5030167;28;105213;-62
2022/06/28 07:35:08;;;;;;;3.73;3.53;;;;;;;21.95;100.00;96713.97;5030898;28;101748;-62
2022/06/28 07:37:37;;;;;;;3.50;3.30;;;;;;;21.78;100.00;96722.03;5030516;28;105340;-62
2022/06/28 07:40:07;;;;;;;3.00;2.80;;;;;;;22.06;100.00;96734.22;5030029;28;105223;-62
2022/06/28 07:43:09;;;;;;;3.50;3.20;;;;;;;21.96;100.00;96731.81;5031392;28;101929;-62
2022/06/28 07:45:47;;;;;;;3.53;3.07;;;;;;;22.03;100.00;96737.59;5030591;28;104022;-62
2022/06/28 07:48:58;;;;;;;3.03;2.83;;;;;;;22.29;100.00;96743.06;5033467;28;105373;-62
2022/06/28 07:54:12;;;;;;;3.37;3.07;;;;;;;22.06;100.00;96736.16;5029860;28;105782;-62
2022/06/28 07:56:48;;;;;;;3.60;3.30;;;;;;;21.77;100.00;96757.53;5030289;28;102138;-62
2022/06/28 07:59:16;;;;;;;3.20;3.00;;;;;;;22.15;100.00;96753.22;5030231;28;105515;-62
2022/06/28 08:01:45;;;;;;;3.00;2.80;;;;;;;22.44;100.00;96745.31;5029653;28;105177;-62
2022/06/28 08:04:19;;;;;;;3.27;2.97;;;;;;;22.33;100.00;96744.81;5030012;27;102222;-62
2022/06/28 08:06:48;;;;;;;3.13;2.93;;;;;;;22.64;100.00;96744.72;5013635;28;104826;-62
2022/06/28 08:09:15;;;;;;;3.37;3.07;;;;;;;23.04;100.00;96741.53;5027570;28;105262;-63
2022/06/28 08:11:42;;;;;;;4.47;3.40;;;;;;;22.89;100.00;96735.81;5033499;28;101902;-62
2022/06/28 08:14:12;;;;;;;3.37;3.07;;;;;;;23.00;100.00;96739.78;5029456;28;105155;-62
2022/06/28 08:20:35;;;;;;;2.40;2.30;;;;;;;23.48;100.00;96735.72;5030056;28;105302;-63
2022/06/28 08:23:03;;;;;;;3.47;2.87;;;;;;;23.64;100.00;96736.81;5029317;28;105207;-62
2022/06/28 08:26:11;;;;;;;2.50;2.17;;;;;;;23.66;100.00;96726.41;5029805;28;101972;-62
2022/06/28 08:28:38;;;;;;;3.40;2.90;;;;;;;23.23;100.00;96719.50;5029958;28;105488;-62
2022/06/28 08:31:05;;;;;;;3.23;3.03;;;;;;;22.49;100.00;96721.59;5030445;28;102621;-62
2022/06/28 08:33:32;;;;;;;3.80;3.40;;;;;;;21.83;100.00;96721.09;5029747;28;102020;-62
2022/06/28 08:36:24;;;;;;;3.67;3.37;;;;;;;21.41;100.00;96729.81;5032586;28;103754;-63
2022/06/28 08:38:51;;;;;;;3.50;3.30;;;;;;;21.89;100.00;96741.50;5029791;28;101885;-62
2022/06/28 08:41:19;;;;;;;3.40;3.20;;;;;;;22.00;100.00;96732.78;5029749;28;105043;-62
2022/06/28 08:43:46;;;;;;;3.67;3.40;;;;;;;21.57;100.00;96748.03;5030323;27;103119;-63
2022/06/28 08:46:26;;;;;;;3.10;2.90;;;;;;;21.87;100.00;96743.72;5030970;27;101832;-62
2022/06/28 08:49:03;;;;;;;3.30;3.00;;;;;;;22.00;100.00;96737.38;5031269;28;102616;-62
2022/06/28 08:51:33;;;;;;;3.33;3.13;;;;;;;21.89;100.00;96734.19;5028707;28;105487;-62
2022/06/28 08:54:02;;;;;;;3.40;3.20;;;;;;;21.94;100.00;96735.94;5031085;27;101863;-62
2022/06/28 08:56:30;;;;;;;4.03;3.73;;;;;;;22.11;100.00;96723.25;5028966;28;105859;-62
2022/06/28 08:58:58;;;;;;;4.13;3.83;;;;;;;21.38;100.00;96738.53;5033569;28;102547;-62
2022/06/28 09:01:26;;;;;;;5.63;4.40;;;;;;;21.58;100.00;96746.13;5030799;28;102489;-62
2022/06/28 09:03:55;;;;;;;5.03;4.23;;;;;;;21.39;100.00;96748.25;5028507;28;103920;-62
2022/06/28 09:06:25;;;;;;;4.93;4.43;;;;;;;21.61;100.00;96740.06;5029248;28;101924;-62
2022/06/28 09:08:54;;;;;;;4.00;3.70;;;;;;;21.47;100.00;96731.25;5030803;28;102917;-63
2022/06/28 09:11:21;;;;;;;4.80;3.60;;;;;;;21.87;100.00;96722.06;5029796;28;103124;-64
2022/06/28 09:13:48;;;;;;;4.50;4.10;;;;;;;21.91;100.00;96721.13;5029258;28;102031;-63
2022/06/28 09:16:28;;;;;;;4.50;4.03;;;;;;;21.88;100.00;96731.78;5028249;27;103649;-67
2022/06/28 09:19:05;;;;;;;5.37;4.13;;;;;;;21.61;100.00;96740.88;5008483;28;104930;-66
2022/06/28 09:21:43;;;;;;;4.43;4.13;;;;;;;21.66;100.00;96746.16;5013910;28;102092;-66
2022/06/28 09:24:11;;;;;;;4.87;4.47;;;;;;;22.05;100.00;96738.06;5009789;28;103084;-64
2022/06/28 09:30:03;;;;;;;3.70;3.40;;;;;;;22.25;100.00;96723.94;5028979;28;105602;-64
2022/06/28 09:32:32;;;;;;;3.90;3.60;;;;;;;22.47;100.00;96712.19;5029681;28;102658;-63
2022/06/28 09:35:50;;;;;;;3.67;3.40;;;;;;;22.61;100.00;96710.91;5029029;28;102273;-64
2022/06/28 09:38:30;;;;;;;3.90;3.60;;;;;;;22.81;100.00;96717.59;5030143;28;103452;-64
2022/06/28 09:40:59;;;;;;;5.97;3.40;;;;;;;22.38;100.00;96712.16;5028092;28;104135;-62
2022/06/28 09:43:32;;;;;;;3.37;3.17;;;;;;;22.52;100.00;96718.25;5032199;28;102042;-62
2022/06/28 09:46:02;;;;;;;4.27;3.70;;;;;;;22.62;100.00;96717.16;5026700;28;105686;-63
2022/06/28 09:48:36;;;;;;;3.97;3.73;;;;;;;22.64;100.00;96720.31;5026335;28;101787;-62
2022/06/28 09:51:04;;;;;;;4.23;3.93;;;;;;;22.45;100.00;96727.97;5026858;28;104251;-62
2022/06/28 09:53:34;;;;;;;3.70;3.40;;;;;;;22.74;100.00;96720.00;5025945;28;102606;-63
2022/06/28 09:56:06;;;;;;;4.90;3.57;;;;;;;23.10;100.00;96723.97;5029634;27;102053;-63
2022/06/28 09:58:35;;;;;;;3.77;3.47;;;;;;;23.21;100.00;96708.97;5030115;28;102393;-64
2022/06/28 10:01:02;;;;;;;4.20;3.80;;;;;;;22.95;100.00;96713.59;5029141;28;102637;-64
2022/06/28 10:03:29;;;;;;;4.00;3.70;;;;;;;22.39;100.00;96699.41;5029944;28;101850;-68
2022/06/28 10:06:11;;;;;;;3.87;3.57;;;;;;;22.75;100.00;96708.03;5032692;27;102757;-63
2022/06/28 10:08:39;;;;;;;3.73;3.43;;;;;;;22.64;100.00;96704.06;5029930;27;101653;-65
2022/06/28 10:11:10;;;;;;;3.83;3.60;;;;;;;23.22;100.00;96704.34;5028614;28;105665;-65
2022/06/28 10:16:49;;;;;;;2.90;2.70;;;;;;;22.90;100.00;96696.72;5030011;27;101768;-65
2022/06/28 10:19:26;;;;;;;3.13;2.87;;;;;;;22.81;100.00;96696.72;5028534;28;105540;-65
2022/06/28 10:22:10;;;;;;;3.43;2.60;;;;;;;22.90;100.00;96691.28;5029222;28;102794;-64
2022/06/28 10:25:00;;;;;;;3.50;3.20;;;;;;;22.96;100.00;96679.16;5029785;27;101740;-64
2022/06/28 10:27:30;;;;;;;3.30;3.10;;;;;;;23.15;100.00;96682.31;5027050;27;103032;-65
2022/06/28 10:30:28;;;;;;;2.97;2.70;;;;;;;23.55;100.00;96670.09;5036189;27;102579;-64
2022/06/28 10:32:56;;;;;;;2.90;2.70;;;;;;;23.89;100.00;96681.63;5033262;27;102341;-64
2022/06/28 10:39:15;;;;;;;2.53;2.33;;;;;;;23.93;100.00;96671.66;5032984;27;101945;-64
2022/06/28 10:41:45;;;;;;;2.70;2.50;;;;;;;23.79;100.00;96667.56;5033050;27;102781;-64
2022/06/28 10:44:16;;;;;;;2.70;2.50;;;;;;;23.63;100.00;96661.09;5032124;27;102877;-64
2022/06/28 10:46:50;;;;;;;2.87;2.70;;;;;;;23.54;100.00;96650.28;5031677;28;101880;-64
2022/06/28 10:49:17;;;;;;;2.80;2.60;;;;;;;23.41;100.00;96643.16;5033051;28;102982;-64
2022/06/28 10:52:11;;;;;;;2.50;2.40;;;;;;;23.40;100.00;96638.84;5030360;28;105878;-65
2022/06/28 10:54:40;;;;;;;2.60;2.40;;;;;;;23.19;100.00;96632.53;5034561;28;102113;-65
2022/06/28 10:57:23;;;;;;;2.13;2.00;;;;;;;23.13;100.00;96624.84;5030739;28;105401;-64
2022/06/28 10:59:53;;;;;;;2.70;2.50;;;;;;;23.33;100.00;96624.19;5031396;27;102313;-64
2022/06/28 11:02:21;;;;;;;2.57;2.47;;;;;;;23.17;100.00;96620.38;5032886;28;102986;-65
2022/06/28 11:05:07;;;;;;;2.53;2.40;;;;;;;22.99;100.00;96614.19;5030485;28;105167;-64
2022/06/28 11:07:35;;;;;;;2.50;2.40;;;;;;;23.06;100.00;96613.72;5032659;28;101687;-64
2022/06/28 11:10:13;;;;;;;2.53;2.33;;;;;;;23.04;100.00;96603.19;5032650;28;102855;-64
2022/06/28 11:12:43;;;;;;;2.73;2.40;;;;;;;23.02;100.00;96601.91;5032200;27;103223;-64
2022/06/28 11:15:35;;;;;;;3.73;3.27;;;;;;;23.08;100.00;96604.13;5031015;28;101911;-65
2022/06/28 11:18:02;;;;;;;3.00;2.80;;;;;;;22.84;100.00;96594.94;5033970;28;105036;-64
2022/06/28 11:20:31;;;;;;;3.03;2.77;;;;;;;23.02;100.00;96599.19;5032425;28;101881;-65
2022/06/28 11:22:58;;;;;;;3.00;2.50;;;;;;;22.99;100.00;96591.72;5032240;27;102293;-65
2022/06/28 11:27:19;;;;;;;2.40;2.30;;;;;;;22.98;100.00;96598.25;5030060;28;106173;-64
2022/06/28 11:28:18;;;;;;;2.80;2.63;;;;;;;23.09;100.00;96594.06;5030575;28;101981;-65
2022/06/28 11:30:47;;;;;;;3.10;2.90;;;;;;;23.00;100.00;96601.44;5030912;28;103652;-65
2022/06/28 11:33:17;;;;;;;3.07;2.87;;;;;;;23.09;100.00;96594.88;5030089;28;105609;-65
2022/06/28 11:36:03;;;;;;;7.00;3.20;;;;;;;23.23;100.00;96597.41;5030587;28;101804;-64
2022/06/28 11:38:30;;;;;;;3.23;2.93;;;;;;;23.23;100.00;96600.13;5030756;28;105592;-65
2022/06/28 11:40:57;;;;;;;3.27;2.80;;;;;;;23.33;100.00;96597.03;5032652;27;101979;-65
2022/06/28 11:43:25;;;;;;;4.97;2.90;;;;;;;23.08;100.00;96584.31;5030634;28;103597;-65
2022/06/28 11:45:57;;;;;;;3.30;3.10;;;;;;;22.99;100.00;96580.88;5029862;28;105992;-65
2022/06/28 11:48:31;;;;;;;3.50;3.13;;;;;;;23.01;100.00;96578.63;5030548;28;101877;-65
2022/06/28 11:51:00;;;;;;;2.90;2.70;;;;;;;22.95;100.00;96569.84;5030299;28;105036;-65
2022/06/28 11:53:30;;;;;;;3.93;2.60;;;;;;;22.89;100.00;96575.78;5031084;28;103208;-65
2022/06/28 11:55:58;;;;;;;2.83;2.57;;;;;;;23.14;100.00;96577.59;5030085;28;102288;-65
2022/06/28 11:58:26;;;;;;;3.43;2.80;;;;;;;23.16;100.00;96575.38;5031860;28;103016;-64
2022/06/28 12:01:17;;;;;;;2.90;2.70;;;;;;;23.10;100.00;96565.81;5034478;28;102625;-65
2022/06/28 12:03:57;;;;;;;2.97;2.77;;;;;;;23.15;100.00;96552.09;5030409;28;104843;-65
2022/06/28 12:06:33;;;;;;;3.30;3.00;;;;;;;23.19;100.00;96550.31;5029780;28;105290;-65
2022/06/28 12:09:01;;;;;;;3.03;2.70;;;;;;;22.86;100.00;96543.88;5031757;27;101787;-65
2022/06/28 12:11:35;;;;;;;2.60;2.40;;;;;;;23.25;100.00;96538.16;5031433;28;102613;-65
2022/06/28 12:14:08;;;;;;;3.37;2.50;;;;;;;23.59;100.00;96532.56;5031099;28;102729;-65
2022/06/28 12:16:38;;;;;;;2.90;2.60;;;;;;;23.87;100.00;96533.63;5030141;28;101817;-64
2022/06/28 12:19:19;;;;;;;2.67;2.40;;;;;;;23.91;100.00;96531.84;5031711;28;102392;-65
2022/06/28 12:21:59;;;;;;;2.50;2.30;;;;;;;23.94;100.00;96532.00;5029179;28;105966;-65
2022/06/28 12:24:39;;;;;;;2.53;2.10;;;;;;;24.04;100.00;96537.03;5034766;27;101850;-65
2022/06/28 12:27:07;;;;;;;2.57;2.37;;;;;;;24.00;100.00;96557.03;5029482;28;103934;-65
2022/06/28 12:29:34;;;;;;;3.03;2.00;;;;;;;23.87;100.00;96555.38;5031312;27;101825;-65
2022/06/28 12:32:03;;;;;;;2.13;2.03;;;;;;;23.70;100.00;96555.47;5031263;28;102511;-65
2022/06/28 12:34:31;;;;;;;2.10;2.00;;;;;;;23.64;100.00;96562.25;5030383;28;102682;-65
2022/06/28 12:36:58;;;;;;;2.27;2.17;;;;;;;23.70;100.00;96563.63;5029600;28;101891;-64